createdAt,value
2023-02-15T00:10:58.621Z,11.75
2023-02-15T00:22:58.643Z,11.74
2023-02-15T00:34:58.613Z,11.72
2023-02-15T00:46:58.846Z,11.71
2023-02-15T00:58:58.687Z,11.68
2023-02-15T01:10:58.613Z,11.67
2023-02-15T01:22:58.673Z,11.67
2023-02-15T01:34:58.701Z,11.65
2023-02-15T01:46:58.746Z,11.63
2023-02-15T01:58:58.743Z,11.61
2023-02-15T02:10:58.812Z,11.61
2023-02-15T02:22:58.648Z,11.59
2023-02-15T02:34:58.680Z,11.57
2023-02-15T02:46:58.710Z,11.56
2023-02-15T02:58:58.662Z,11.55
2023-02-15T03:10:58.619Z,11.54
2023-02-15T03:22:58.661Z,11.52
2023-02-15T03:34:58.638Z,11.49
2023-02-15T03:46:58.648Z,11.49
2023-02-15T03:58:58.718Z,11.46
2023-02-15T04:10:58.621Z,11.45
2023-02-15T04:22:58.613Z,11.45
2023-02-15T04:34:58.705Z,11.43
2023-02-15T04:46:58.620Z,11.41
2023-02-15T04:58:58.742Z,11.40
2023-02-15T05:10:58.678Z,11.39
2023-02-15T05:22:58.610Z,11.35
2023-02-15T05:34:58.704Z,11.36
2023-02-15T05:46:58.680Z,11.34
2023-02-15T05:58:58.634Z,11.33
2023-02-15T06:10:58.706Z,11.30
2023-02-15T06:22:58.761Z,11.28
2023-02-15T06:34:58.627Z,11.29
2023-02-15T06:46:58.631Z,11.26
2023-02-15T06:58:58.651Z,11.25
2023-02-15T07:10:58.637Z,11.25
2023-02-15T07:22:58.668Z,11.23
2023-02-15T07:34:58.704Z,11.23
2023-02-15T07:46:58.681Z,11.25
2023-02-15T07:58:58.693Z,11.26
2023-02-15T08:10:58.616Z,11.27
2023-02-15T08:22:58.702Z,11.29
2023-02-15T08:34:58.729Z,11.29
2023-02-15T08:46:58.703Z,11.39
2023-02-15T08:58:58.663Z,11.40
2023-02-15T09:10:58.699Z,11.44
2023-02-15T09:22:59.974Z,11.47
2023-02-15T09:34:58.646Z,11.54
2023-02-15T09:46:58.625Z,11.61
2023-02-15T09:58:59.052Z,11.71
2023-02-15T10:10:58.629Z,11.87
2023-02-15T10:22:59.786Z,12.12
2023-02-15T10:34:58.716Z,12.25
2023-02-15T10:46:58.619Z,12.49
2023-02-15T10:59:00.705Z,12.66
2023-02-15T11:10:58.619Z,12.69
2023-02-15T11:22:58.702Z,12.69
2023-02-15T11:34:59.091Z,12.71
2023-02-15T11:46:58.673Z,12.73
2023-02-15T11:58:58.704Z,12.73
2023-02-15T12:10:58.619Z,12.73
2023-02-15T12:22:58.622Z,12.73
2023-02-15T12:35:01.309Z,12.73
2023-02-15T12:46:58.699Z,12.76
2023-02-15T12:58:58.706Z,12.86
2023-02-15T13:10:58.633Z,12.84
2023-02-15T13:22:58.664Z,12.83
2023-02-15T13:34:58.735Z,12.84
2023-02-15T13:46:58.661Z,12.85
2023-02-15T13:58:58.717Z,12.83
2023-02-15T14:10:58.620Z,12.84
2023-02-15T14:22:58.651Z,12.86
2023-02-15T14:34:58.705Z,12.88
2023-02-15T14:46:58.664Z,12.86
2023-02-15T14:58:58.695Z,12.89
2023-02-15T15:10:58.618Z,12.85
2023-02-15T15:22:58.610Z,12.16
2023-02-15T15:34:58.677Z,12.16
2023-02-15T15:46:58.624Z,12.10
2023-02-15T15:58:58.682Z,12.06
2023-02-15T16:10:58.729Z,11.98
2023-02-15T16:22:58.617Z,11.99
2023-02-15T16:34:58.688Z,11.96
2023-02-15T16:46:58.790Z,11.91
2023-02-15T16:58:58.716Z,11.91
2023-02-15T17:10:58.613Z,11.89
2023-02-15T17:22:58.617Z,11.87
2023-02-15T17:34:58.659Z,11.81
2023-02-15T17:46:58.617Z,11.79
2023-02-15T17:58:58.692Z,11.77
2023-02-15T18:10:58.616Z,11.76
2023-02-15T18:22:58.702Z,11.77
2023-02-15T18:34:58.737Z,11.72
2023-02-15T18:46:58.668Z,11.70
2023-02-15T18:58:58.625Z,11.68
2023-02-15T19:10:58.647Z,12.22
2023-02-15T19:22:58.721Z,12.20
2023-02-15T19:34:58.693Z,12.19
2023-02-15T19:46:58.705Z,12.17
2023-02-15T19:58:58.708Z,12.15
2023-02-15T20:10:58.620Z,12.15
2023-02-15T20:22:58.626Z,12.13
2023-02-15T20:34:58.623Z,12.11
2023-02-15T20:46:58.817Z,12.09
2023-02-15T20:58:58.744Z,12.09
2023-02-15T21:11:00.702Z,12.07
2023-02-15T21:22:58.692Z,12.04
2023-02-15T21:34:58.681Z,12.04
2023-02-15T21:46:58.728Z,12.02
2023-02-15T21:58:58.619Z,12.00
2023-02-15T22:10:58.626Z,11.98
2023-02-15T22:22:58.705Z,11.96
2023-02-15T22:34:58.702Z,11.96
2023-02-15T22:46:58.616Z,11.93
2023-02-15T22:58:58.670Z,11.92
2023-02-15T23:10:58.633Z,11.90
2023-02-15T23:22:58.619Z,11.88
2023-02-15T23:34:58.658Z,11.87
2023-02-15T23:46:58.709Z,11.86
2023-02-15T23:58:58.613Z,11.84
